Time;durP1;ratioP1;P1;durP2;ratioP2;P2;SDS_P1;SDS_P2;PMS_P1;PMS_P2;Temp;Humidity;BMP_temperature;BMP_pressure;BME280_temperature;BME280_humidity;BME280_pressure;Samples;Min_cycle;Max_cycle;Signal;HPM_P1;HPM_P2
2022/06/09 00:01:22;;;;;;;;;;;;;;;;;;6233457;22;20404;-84
2022/06/09 00:03:48;;;;;;;;;;;;;;;;;;6209067;22;19923;-84
2022/06/09 00:06:14;;;;;;;;;;;;;;;;;;6233345;22;19951;-84
2022/06/09 00:08:40;;;;;;;;;;;;;;;;;;6205257;22;19938;-85
2022/06/09 00:11:06;;;;;;;;;;;;;;;;;;6210633;22;19922;-84
2022/06/09 00:13:33;;;;;;;;;;;;;;;;;;6208333;22;20617;-84
2022/06/09 00:15:59;;;;;;;;;;;;;;;;;;6208459;22;19919;-84
2022/06/09 00:18:25;;;;;;;;;;;;;;;;;;6231433;22;19930;-84
2022/06/09 00:20:51;;;;;;;;;;;;;;;;;;6211312;22;19927;-84
2022/06/09 00:23:17;;;;;;;;;;;;;;;;;;6212154;22;19925;-84
2022/06/09 00:25:43;;;;;;;;;;;;;;;;;;6207833;22;20031;-84
2022/06/09 00:28:09;;;;;;;;;;;;;;;;;;6232566;22;19950;-84
2022/06/09 00:30:35;;;;;;;;;;;;;;;;;;6232193;22;19919;-84
2022/06/09 00:33:01;;;;;;;;;;;;;;;;;;6211897;22;20033;-84
2022/06/09 00:35:27;;;;;;;;;;;;;;;;;;6232727;22;19919;-84
2022/06/09 00:37:53;;;;;;;;;;;;;;;;;;6209700;22;20052;-84
2022/06/09 00:40:19;;;;;;;;;;;;;;;;;;6210792;22;20350;-84
2022/06/09 00:42:45;;;;;;;;;;;;;;;;;;6211391;22;20651;-84
2022/06/09 00:45:11;;;;;;;;;;;;;;;;;;6211822;22;20418;-84
2022/06/09 00:47:36;;;;;;;;;;;;;;;;;;6209020;22;19919;-84
2022/06/09 00:50:02;;;;;;;;;;;;;;;;;;6209999;22;20362;-84
2022/06/09 00:52:29;;;;;;;;;;;;;;;;;;6234302;22;20463;-84
2022/06/09 00:54:55;;;;;;;;;;;;;;;;;;6238011;22;19982;-84
2022/06/09 00:57:20;;;;;;;;;;;;;;;;;;6237366;22;19970;-84
2022/06/09 00:59:46;;;;;;;;;;;;;;;;;;6209241;22;19923;-84
2022/06/09 01:02:12;;;;;;;;;;;;;;;;;;6211382;22;20365;-84
2022/06/09 01:04:38;;;;;;;;;;;;;;;;;;6234276;22;19947;-84
2022/06/09 01:07:04;;;;;;;;;;;;;;;;;;6237058;22;19919;-84
2022/06/09 01:09:30;;;;;;;;;;;;;;;;;;6233226;22;19915;-84
2022/06/09 01:11:56;;;;;;;;;;;;;;;;;;6209483;22;20002;-84
2022/06/09 01:14:22;;;;;;;;;;;;;;;;;;6232386;22;19919;-84
2022/06/09 01:16:49;;;;;;;;;;;;;;;;;;6208113;22;19919;-84
2022/06/09 01:19:14;;;;;;;;;;;;;;;;;;6230372;22;19923;-84
2022/06/09 01:21:40;;;;;;;;;;;;;;;;;;6231335;22;20365;-84
2022/06/09 01:24:06;;;;;;;;;;;;;;;;;;6232828;22;19926;-84
2022/06/09 01:26:32;;;;;;;;;;;;;;;;;;6230054;22;19919;-84
2022/06/09 01:28:58;;;;;;;;;;;;;;;;;;6234352;22;20235;-84
2022/06/09 01:31:24;;;;;;;;;;;;;;;;;;6233070;22;19938;-84
2022/06/09 01:33:50;;;;;;;;;;;;;;;;;;6234863;22;20347;-84
2022/06/09 01:36:16;;;;;;;;;;;;;;;;;;6232171;22;20294;-84
2022/06/09 01:38:42;;;;;;;;;;;;;;;;;;6231077;22;20347;-84
2022/06/09 01:41:08;;;;;;;;;;;;;;;;;;6261194;22;20022;-84
2022/06/09 01:43:34;;;;;;;;;;;;;;;;;;6232019;22;19919;-84
2022/06/09 01:46:00;;;;;;;;;;;;;;;;;;6210392;22;19923;-84
2022/06/09 01:48:27;;;;;;;;;;;;;;;;;;6234088;22;20037;-84
2022/06/09 01:50:53;;;;;;;;;;;;;;;;;;6259079;22;19919;-84
2022/06/09 01:53:19;;;;;;;;;;;;;;;;;;6234653;22;20498;-84
2022/06/09 01:55:44;;;;;;;;;;;;;;;;;;6229932;22;19945;-84
2022/06/09 01:58:11;;;;;;;;;;;;;;;;;;6208729;22;19993;-84
2022/06/09 02:00:37;;;;;;;;;;;;;;;;;;6207171;22;19969;-84
2022/06/09 02:03:03;;;;;;;;;;;;;;;;;;6262835;22;19923;-84
2022/06/09 02:05:29;;;;;;;;;;;;;;;;;;6205876;22;19919;-84
2022/06/09 02:07:55;;;;;;;;;;;;;;;;;;6235014;22;20273;-84
2022/06/09 02:10:22;;;;;;;;;;;;;;;;;;6207078;22;20424;-84
2022/06/09 02:12:48;;;;;;;;;;;;;;;;;;6207860;22;19922;-84
2022/06/09 02:15:14;;;;;;;;;;;;;;;;;;6232086;22;19919;-84
2022/06/09 02:17:40;;;;;;;;;;;;;;;;;;6231416;22;19923;-84
2022/06/09 02:20:06;;;;;;;;;;;;;;;;;;6209469;22;19926;-84
2022/06/09 02:22:32;;;;;;;;;;;;;;;;;;6231226;22;19972;-84
2022/06/09 02:24:58;;;;;;;;;;;;;;;;;;6236534;22;19923;-84
2022/06/09 02:27:24;;;;;;;;;;;;;;;;;;6232264;22;20336;-84
2022/06/09 02:29:50;;;;;;;;;;;;;;;;;;6233053;22;19930;-84
2022/06/09 02:32:17;;;;;;;;;;;;;;;;;;6210218;22;19949;-84
2022/06/09 02:34:43;;;;;;;;;;;;;;;;;;6233058;22;20315;-84
2022/06/09 02:37:08;;;;;;;;;;;;;;;;;;6211995;22;19945;-84
2022/06/09 02:39:34;;;;;;;;;;;;;;;;;;6232049;22;19966;-84
2022/06/09 02:42:00;;;;;;;;;;;;;;;;;;6235042;22;19915;-84
2022/06/09 02:44:26;;;;;;;;;;;;;;;;;;6235843;22;19973;-84
2022/06/09 02:46:52;;;;;;;;;;;;;;;;;;6236529;22;19930;-84
2022/06/09 02:49:18;;;;;;;;;;;;;;;;;;6210944;22;19919;-84
2022/06/09 02:51:44;;;;;;;;;;;;;;;;;;6208725;22;19966;-84
2022/06/09 02:54:12;;;;;;;;;;;;;;;;;;6236806;22;19923;-84
2022/06/09 02:56:37;;;;;;;;;;;;;;;;;;6233819;22;19962;-84
2022/06/09 02:59:03;;;;;;;;;;;;;;;;;;6235923;22;20407;-84
2022/06/09 03:01:29;;;;;;;;;;;;;;;;;;6234267;22;19923;-84
2022/06/09 03:03:55;;;;;;;;;;;;;;;;;;6235305;22;19926;-83
2022/06/09 03:06:21;;;;;;;;;;;;;;;;;;6235343;22;19919;-84
2022/06/09 03:08:47;;;;;;;;;;;;;;;;;;6206358;22;19923;-84
2022/06/09 03:11:13;;;;;;;;;;;;;;;;;;6233312;22;19946;-84
2022/06/09 03:13:39;;;;;;;;;;;;;;;;;;6206391;22;20091;-84
2022/06/09 03:16:05;;;;;;;;;;;;;;;;;;6233577;22;20282;-84
2022/06/09 03:18:32;;;;;;;;;;;;;;;;;;6230450;22;20318;-84
2022/06/09 03:20:58;;;;;;;;;;;;;;;;;;6234535;22;19980;-84
2022/06/09 03:23:24;;;;;;;;;;;;;;;;;;6205386;22;19919;-84
2022/06/09 03:25:50;;;;;;;;;;;;;;;;;;6205275;22;20534;-84
2022/06/09 03:28:15;;;;;;;;;;;;;;;;;;6207443;22;19933;-84
2022/06/09 03:30:41;;;;;;;;;;;;;;;;;;6230661;22;19915;-84
2022/06/09 03:33:07;;;;;;;;;;;;;;;;;;6209642;22;19919;-84
2022/06/09 03:35:33;;;;;;;;;;;;;;;;;;6206865;22;19969;-84
2022/06/09 03:37:59;;;;;;;;;;;;;;;;;;6233969;22;19927;-84
2022/06/09 03:40:25;;;;;;;;;;;;;;;;;;6230086;22;19919;-84
2022/06/09 03:42:51;;;;;;;;;;;;;;;;;;6231792;22;19919;-84
2022/06/09 03:45:17;;;;;;;;;;;;;;;;;;6235432;22;20243;-85
2022/06/09 03:47:44;;;;;;;;;;;;;;;;;;6230304;22;20421;-84
2022/06/09 03:50:10;;;;;;;;;;;;;;;;;;6209639;22;19923;-84
2022/06/09 03:52:36;;;;;;;;;;;;;;;;;;6208252;22;20018;-84
2022/06/09 03:55:01;;;;;;;;;;;;;;;;;;6209280;22;19945;-84
2022/06/09 03:57:27;;;;;;;;;;;;;;;;;;6204731;22;19919;-84
2022/06/09 03:59:53;;;;;;;;;;;;;;;;;;6233433;22;20094;-84
2022/06/09 04:02:19;;;;;;;;;;;;;;;;;;6206516;22;19930;-84
2022/06/09 04:04:45;;;;;;;;;;;;;;;;;;6230046;22;20345;-84
2022/06/09 04:07:11;;;;;;;;;;;;;;;;;;6235591;22;20470;-84
2022/06/09 04:09:37;;;;;;;;;;;;;;;;;;6232139;22;20585;-84
2022/06/09 04:12:03;;;;;;;;;;;;;;;;;;6208160;22;19994;-84
2022/06/09 04:14:29;;;;;;;;;;;;;;;;;;6230002;22;19919;-84
2022/06/09 04:16:55;;;;;;;;;;;;;;;;;;6231898;22;20354;-85
2022/06/09 04:19:22;;;;;;;;;;;;;;;;;;6233159;22;19923;-84
2022/06/09 04:21:48;;;;;;;;;;;;;;;;;;6206255;22;19996;-84
2022/06/09 04:24:14;;;;;;;;;;;;;;;;;;6233744;22;19925;-84
2022/06/09 04:26:40;;;;;;;;;;;;;;;;;;6231297;22;19973;-84
2022/06/09 04:29:10;;;;;;;;;;;;;;;;;;6207353;22;19919;-84
2022/06/09 04:31:39;;;;;;;;;;;;;;;;;;6207538;22;19926;-84
2022/06/09 04:34:04;;;;;;;;;;;;;;;;;;6207962;22;19933;-84
2022/06/09 04:36:30;;;;;;;;;;;;;;;;;;6207775;22;19922;-85
2022/06/09 04:38:56;;;;;;;;;;;;;;;;;;6210710;22;20026;-85
2022/06/09 04:41:25;;;;;;;;;;;;;;;;;;6238755;22;19990;-85
2022/06/09 04:43:51;;;;;;;;;;;;;;;;;;6237477;22;19954;-84
2022/06/09 04:46:17;;;;;;;;;;;;;;;;;;6210373;22;19919;-84
2022/06/09 04:48:43;;;;;;;;;;;;;;;;;;6232939;22;20332;-84
2022/06/09 04:51:10;;;;;;;;;;;;;;;;;;6210097;22;20045;-84
2022/06/09 04:53:37;;;;;;;;;;;;;;;;;;6207923;22;19973;-84
2022/06/09 04:56:03;;;;;;;;;;;;;;;;;;6236659;22;20239;-84
2022/06/09 04:58:29;;;;;;;;;;;;;;;;;;6206078;22;19931;-84
2022/06/09 05:00:55;;;;;;;;;;;;;;;;;;6207433;22;20331;-84
2022/06/09 05:03:24;;;;;;;;;;;;;;;;;;6207745;22;19919;-85
2022/06/09 05:05:50;;;;;;;;;;;;;;;;;;6232679;22;20328;-84
2022/06/09 05:08:16;;;;;;;;;;;;;;;;;;6232562;22;19926;-85
2022/06/09 05:10:42;;;;;;;;;;;;;;;;;;6228654;22;19919;-85
2022/06/09 05:13:08;;;;;;;;;;;;;;;;;;6203407;22;20720;-85
2022/06/09 05:15:34;;;;;;;;;;;;;;;;;;6227240;22;19958;-84
2022/06/09 05:18:00;;;;;;;;;;;;;;;;;;6230463;22;19934;-85
2022/06/09 05:20:26;;;;;;;;;;;;;;;;;;6195813;22;19923;-85
2022/06/09 05:22:53;;;;;;;;;;;;;;;;;;6233216;22;20368;-85
2022/06/09 05:25:19;;;;;;;;;;;;;;;;;;6233952;22;19926;-85
2022/06/09 05:27:45;;;;;;;;;;;;;;;;;;6206546;22;20864;-85
2022/06/09 05:30:11;;;;;;;;;;;;;;;;;;6239757;22;19919;-85
2022/06/09 05:32:37;;;;;;;;;;;;;;;;;;6235531;22;20377;-84
2022/06/09 05:35:03;;;;;;;;;;;;;;;;;;6236067;22;19941;-84
2022/06/09 05:44:50;;;;;;;;;;;;;;;;;;6209101;22;19967;-85
2022/06/09 05:45:45;;;;;;;;;;;;;;;;;;6227623;23;19927;-84
2022/06/09 05:48:11;;;;;;;;;;;;;;;;;;6207985;23;20427;-84
2022/06/09 05:50:37;;;;;;;;;;;;;;;;;;6229961;23;19920;-84
2022/06/09 05:53:03;;;;;;;;;;;;;;;;;;6207292;23;19935;-85
2022/06/09 05:55:29;;;;;;;;;;;;;;;;;;6230890;23;19919;-84
2022/06/09 05:57:55;;;;;;;;;;;;;;;;;;6208332;23;19978;-84
2022/06/09 06:00:21;;;;;;;;;;;;;;;;;;6179780;23;19916;-84
2022/06/09 06:02:47;;;;;;;;;;;;;;;;;;6178962;23;19919;-84
2022/06/09 06:08:09;;;;;;;;;;;;;;;;;;6096532;23;19921;-85
2022/06/09 06:10:35;;;;;;;;;;;;;;;;;;6197913;23;19916;-85
2022/06/09 06:13:01;;;;;;;;;;;;;;;;;;6206653;23;19969;-85
2022/06/09 06:15:26;;;;;;;;;;;;;;;;;;6204812;23;19919;-85
2022/06/09 06:17:54;;;;;;;;;;;;;;;;;;6233936;23;19924;-85
2022/06/09 06:20:21;;;;;;;;;;;;;;;;;;6227311;23;19931;-84
2022/06/09 06:22:47;;;;;;;;;;;;;;;;;;6203645;23;20443;-84
2022/06/09 06:25:13;;;;;;;;;;;;;;;;;;6206029;23;19919;-85
2022/06/09 06:27:39;;;;;;;;;;;;;;;;;;6228986;23;20657;-84
2022/06/09 06:30:04;;;;;;;;;;;;;;;;;;6230872;23;20312;-85
2022/06/09 06:32:30;;;;;;;;;;;;;;;;;;6203171;23;20298;-85
2022/06/09 06:34:56;;;;;;;;;;;;;;;;;;6209740;23;20244;-85
2022/06/09 06:37:25;;;;;;;;;;;;;;;;;;6184809;23;19959;-84
2022/06/09 06:39:51;;;;;;;;;;;;;;;;;;6210706;23;19923;-85
2022/06/09 06:42:17;;;;;;;;;;;;;;;;;;6209016;23;19919;-85
2022/06/09 06:44:43;;;;;;;;;;;;;;;;;;6206512;23;20424;-85
2022/06/09 06:47:11;;;;;;;;;;;;;;;;;;6235564;23;19932;-85
2022/06/09 06:49:37;;;;;;;;;;;;;;;;;;6233697;23;19919;-85
2022/06/09 06:52:03;;;;;;;;;;;;;;;;;;6235409;23;20283;-84
2022/06/09 06:54:28;;;;;;;;;;;;;;;;;;6207394;23;19965;-85
2022/06/09 06:56:54;;;;;;;;;;;;;;;;;;6235112;23;19919;-85
2022/06/09 06:59:23;;;;;;;;;;;;;;;;;;6207589;23;20528;-85
2022/06/09 07:01:49;;;;;;;;;;;;;;;;;;6207754;23;19923;-85
2022/06/09 07:04:15;;;;;;;;;;;;;;;;;;6208339;23;20252;-85
2022/06/09 07:06:41;;;;;;;;;;;;;;;;;;6231050;23;19919;-84
2022/06/09 07:12:11;;;;;;;;;;;;;;;;;;6194455;22;19930;-85
2022/06/09 07:14:37;;;;;;;;;;;;;;;;;;6206614;22;19923;-85
2022/06/09 07:17:03;;;;;;;;;;;;;;;;;;6236667;22;19982;-85
2022/06/09 07:19:29;;;;;;;;;;;;;;;;;;6232318;22;20300;-85
2022/06/09 07:21:55;;;;;;;;;;;;;;;;;;6211533;22;19922;-85
2022/06/09 07:24:21;;;;;;;;;;;;;;;;;;6235774;22;19926;-85
2022/06/09 07:26:47;;;;;;;;;;;;;;;;;;6233341;22;19920;-85
2022/06/09 07:29:13;;;;;;;;;;;;;;;;;;6211624;22;20286;-85
2022/06/09 07:31:39;;;;;;;;;;;;;;;;;;6209713;22;19998;-85
2022/06/09 07:34:07;;;;;;;;;;;;;;;;;;6211927;22;19922;-85
2022/06/09 07:36:33;;;;;;;;;;;;;;;;;;6207728;22;19965;-85
2022/06/09 07:38:59;;;;;;;;;;;;;;;;;;6235312;22;19919;-85
2022/06/09 07:41:25;;;;;;;;;;;;;;;;;;6232646;22;19923;-86
2022/06/09 07:43:51;;;;;;;;;;;;;;;;;;6235522;22;20377;-85
2022/06/09 07:46:17;;;;;;;;;;;;;;;;;;6234712;22;19942;-85
2022/06/09 07:48:45;;;;;;;;;;;;;;;;;;6205444;22;20459;-85
2022/06/09 07:51:10;;;;;;;;;;;;;;;;;;6209096;22;19915;-85
2022/06/09 07:53:38;;;;;;;;;;;;;;;;;;6210091;22;19926;-85
2022/06/09 07:56:04;;;;;;;;;;;;;;;;;;6212124;22;20367;-85
2022/06/09 07:58:30;;;;;;;;;;;;;;;;;;6206454;22;19919;-86
2022/06/09 08:00:56;;;;;;;;;;;;;;;;;;6237177;22;19985;-85
2022/06/09 08:03:22;;;;;;;;;;;;;;;;;;6236706;22;20316;-85
2022/06/09 08:05:48;;;;;;;;;;;;;;;;;;6232373;22;20859;-86
2022/06/09 08:08:14;;;;;;;;;;;;;;;;;;6236325;22;20251;-85
2022/06/09 08:10:40;;;;;;;;;;;;;;;;;;6232971;22;19938;-86
2022/06/09 08:13:05;;;;;;;;;;;;;;;;;;6210912;22;19964;-86
2022/06/09 08:15:31;;;;;;;;;;;;;;;;;;6233705;22;20455;-86
2022/06/09 08:17:57;;;;;;;;;;;;;;;;;;6237373;22;19922;-86
2022/06/09 08:20:23;;;;;;;;;;;;;;;;;;6212009;22;20268;-86
2022/06/09 08:22:49;;;;;;;;;;;;;;;;;;6264435;22;19919;-85
2022/06/09 08:25:15;;;;;;;;;;;;;;;;;;6235863;22;19976;-86
2022/06/09 08:27:41;;;;;;;;;;;;;;;;;;6232792;22;19915;-85
2022/06/09 08:30:08;;;;;;;;;;;;;;;;;;6237044;22;20294;-85
2022/06/09 08:32:34;;;;;;;;;;;;;;;;;;6209924;22;19973;-85
2022/06/09 08:35:00;;;;;;;;;;;;;;;;;;6239184;22;19968;-86
2022/06/09 08:37:26;;;;;;;;;;;;;;;;;;6212960;22;19924;-86
2022/06/09 08:39:53;;;;;;;;;;;;;;;;;;6214923;22;20247;-86
2022/06/09 08:42:19;;;;;;;;;;;;;;;;;;6239877;22;19919;-86
2022/06/09 08:44:45;;;;;;;;;;;;;;;;;;6212123;22;20030;-86
2022/06/09 08:47:11;;;;;;;;;;;;;;;;;;6214718;22;20574;-86
2022/06/09 08:49:37;;;;;;;;;;;;;;;;;;6212074;22;19915;-86
2022/06/09 08:52:03;;;;;;;;;;;;;;;;;;6214847;22;19921;-85
2022/06/09 08:54:29;;;;;;;;;;;;;;;;;;6237267;22;19926;-86
2022/06/09 08:56:55;;;;;;;;;;;;;;;;;;6214580;22;20340;-85
2022/06/09 08:59:21;;;;;;;;;;;;;;;;;;6213968;22;20339;-86
2022/06/09 09:01:50;;;;;;;;;;;;;;;;;;6215033;22;19967;-86
2022/06/09 09:04:16;;;;;;;;;;;;;;;;;;6240032;22;19926;-87
2022/06/09 09:06:42;;;;;;;;;;;;;;;;;;6264196;22;19919;-86
2022/06/09 09:09:07;;;;;;;;;;;;;;;;;;6216144;22;19915;-86
2022/06/09 09:11:33;;;;;;;;;;;;;;;;;;6237377;22;19922;-86
2022/06/09 09:13:59;;;;;;;;;;;;;;;;;;6241239;22;19919;-86
2022/06/09 09:16:25;;;;;;;;;;;;;;;;;;6265406;22;19923;-87
2022/06/09 09:18:53;;;;;;;;;;;;;;;;;;6218330;22;19915;-86
2022/06/09 09:21:19;;;;;;;;;;;;;;;;;;6240817;22;19923;-86
2022/06/09 09:23:46;;;;;;;;;;;;;;;;;;6240082;22;20372;-86
2022/06/09 09:26:12;;;;;;;;;;;;;;;;;;6242619;22;20605;-86
2022/06/09 09:28:37;;;;;;;;;;;;;;;;;;6240745;22;19915;-86
2022/06/09 09:31:03;;;;;;;;;;;;;;;;;;6241286;22;19954;-86
2022/06/09 09:33:29;;;;;;;;;;;;;;;;;;6240298;22;19969;-86
2022/06/09 09:35:56;;;;;;;;;;;;;;;;;;6241046;22;20502;-86
2022/06/09 09:38:21;;;;;;;;;;;;;;;;;;6241137;22;19921;-86
2022/06/09 09:40:47;;;;;;;;;;;;;;;;;;6238288;22;19994;-86
2022/06/09 09:43:14;;;;;;;;;;;;;;;;;;6218192;22;19916;-87
2022/06/09 09:45:40;;;;;;;;;;;;;;;;;;6239808;22;20374;-87
2022/06/09 09:48:06;;;;;;;;;;;;;;;;;;6241656;22;20266;-87
2022/06/09 09:50:31;;;;;;;;;;;;;;;;;;6236432;22;19958;-86
2022/06/09 09:52:57;;;;;;;;;;;;;;;;;;6267590;22;19994;-87
2022/06/09 09:55:25;;;;;;;;;;;;;;;;;;6267256;22;19969;-87
2022/06/09 09:57:52;;;;;;;;;;;;;;;;;;6268703;22;19920;-87
2022/06/09 10:00:18;;;;;;;;;;;;;;;;;;6243463;22;20248;-87
2022/06/09 10:10:58;;;;;;;;;;;;;;;;;;6238999;22;19982;-87
2022/06/09 10:13:24;;;;;;;;;;;;;;;;;;6215823;22;19943;-87
2022/06/09 10:15:50;;;;;;;;;;;;;;;;;;6216025;22;20231;-87
2022/06/09 10:18:16;;;;;;;;;;;;;;;;;;6241558;22;19982;-87
2022/06/09 10:20:43;;;;;;;;;;;;;;;;;;6236627;22;19946;-87
2022/06/09 10:23:09;;;;;;;;;;;;;;;;;;6214655;22;19939;-86
2022/06/09 10:25:35;;;;;;;;;;;;;;;;;;6212460;22;20702;-87
2022/06/09 10:28:01;;;;;;;;;;;;;;;;;;6215992;22;19994;-87
2022/06/09 10:30:27;;;;;;;;;;;;;;;;;;6238328;22;20416;-87
2022/06/09 10:32:53;;;;;;;;;;;;;;;;;;6215192;22;19919;-87
2022/06/09 10:35:19;;;;;;;;;;;;;;;;;;6214864;22;19919;-87
2022/06/09 10:37:45;;;;;;;;;;;;;;;;;;6238232;22;19939;-87
2022/06/09 10:40:11;;;;;;;;;;;;;;;;;;6214170;22;19949;-88
2022/06/09 10:42:37;;;;;;;;;;;;;;;;;;6211850;22;20327;-87
2022/06/09 10:45:03;;;;;;;;;;;;;;;;;;6238556;22;19919;-86
2022/06/09 10:56:00;;;;;;;;;;;;;;;;;;6229671;22;19969;-86
2022/06/09 10:58:27;;;;;;;;;;;;;;;;;;6210183;22;19924;-87
2022/06/09 11:00:53;;;;;;;;;;;;;;;;;;6239690;22;20312;-87
2022/06/09 11:03:19;;;;;;;;;;;;;;;;;;6215673;22;19919;-87
2022/06/09 11:05:45;;;;;;;;;;;;;;;;;;6211423;22;19986;-86
2022/06/09 11:08:11;;;;;;;;;;;;;;;;;;6212870;22;19923;-87
2022/06/09 11:10:37;;;;;;;;;;;;;;;;;;6209540;22;19919;-87
2022/06/09 11:13:03;;;;;;;;;;;;;;;;;;6213802;22;20191;-87
2022/06/09 11:15:29;;;;;;;;;;;;;;;;;;6264448;22;19973;-88
2022/06/09 11:17:55;;;;;;;;;;;;;;;;;;6237667;22;19915;-88
2022/06/09 11:20:21;;;;;;;;;;;;;;;;;;6266806;22;19990;-88
2022/06/09 11:22:47;;;;;;;;;;;;;;;;;;6237665;22;19925;-87
2022/06/09 11:25:12;;;;;;;;;;;;;;;;;;6264197;22;20250;-87
2022/06/09 11:27:38;;;;;;;;;;;;;;;;;;6236868;22;19990;-87
2022/06/09 11:30:04;;;;;;;;;;;;;;;;;;6240979;22;19919;-87
2022/06/09 11:32:30;;;;;;;;;;;;;;;;;;6237814;22;19923;-88
2022/06/09 11:34:58;;;;;;;;;;;;;;;;;;6216487;22;19919;-87
2022/06/09 11:37:24;;;;;;;;;;;;;;;;;;6239665;22;20402;-88
2022/06/09 11:39:50;;;;;;;;;;;;;;;;;;6239936;22;20247;-87
2022/06/09 11:42:16;;;;;;;;;;;;;;;;;;6241608;22;20259;-87
2022/06/09 11:44:42;;;;;;;;;;;;;;;;;;6237148;22;19926;-88
2022/06/09 11:47:08;;;;;;;;;;;;;;;;;;6240013;22;20297;-88
2022/06/09 11:49:36;;;;;;;;;;;;;;;;;;6235861;22;19919;-88
2022/06/09 11:52:03;;;;;;;;;;;;;;;;;;6239745;22;19926;-87
2022/06/09 11:54:29;;;;;;;;;;;;;;;;;;6237520;22;19919;-88
2022/06/09 11:56:55;;;;;;;;;;;;;;;;;;6238927;22;19930;-88
2022/06/09 11:59:25;;;;;;;;;;;;;;;;;;6214104;22;20002;-87
2022/06/09 12:01:51;;;;;;;;;;;;;;;;;;6213698;22;19930;-88
2022/06/09 12:04:17;;;;;;;;;;;;;;;;;;6239183;22;19966;-87
2022/06/09 12:06:43;;;;;;;;;;;;;;;;;;6211511;22;20351;-88
2022/06/09 12:09:12;;;;;;;;;;;;;;;;;;6213738;22;19926;-87
2022/06/09 12:11:38;;;;;;;;;;;;;;;;;;6211052;22;19915;-87
2022/06/09 12:14:10;;;;;;;;;;;;;;;;;;6232584;23;19919;-87
2022/06/09 12:16:36;;;;;;;;;;;;;;;;;;6228704;23;19999;-87
2022/06/09 12:19:03;;;;;;;;;;;;;;;;;;6206154;23;20704;-87
2022/06/09 12:21:29;;;;;;;;;;;;;;;;;;6206015;23;19920;-88
2022/06/09 12:23:55;;;;;;;;;;;;;;;;;;6233790;23;19920;-87
2022/06/09 12:26:21;;;;;;;;;;;;;;;;;;6208832;23;19920;-88
2022/06/09 12:28:47;;;;;;;;;;;;;;;;;;6231204;23;19924;-88
2022/06/09 12:31:13;;;;;;;;;;;;;;;;;;6235214;23;19970;-88
2022/06/09 12:33:39;;;;;;;;;;;;;;;;;;6207069;23;19994;-88
2022/06/09 12:36:05;;;;;;;;;;;;;;;;;;6207800;23;19951;-88
2022/06/09 12:38:31;;;;;;;;;;;;;;;;;;6207748;23;19920;-87
2022/06/09 12:40:57;;;;;;;;;;;;;;;;;;6210051;23;19930;-88
2022/06/09 12:43:23;;;;;;;;;;;;;;;;;;6235325;23;19971;-88
2022/06/09 12:45:52;;;;;;;;;;;;;;;;;;6208785;23;20687;-88
2022/06/09 12:48:18;;;;;;;;;;;;;;;;;;6235172;23;19915;-88
2022/06/09 12:50:44;;;;;;;;;;;;;;;;;;6234246;23;20391;-87
2022/06/09 12:53:10;;;;;;;;;;;;;;;;;;6234899;23;20252;-88
2022/06/09 12:55:36;;;;;;;;;;;;;;;;;;6232396;23;19924;-89
2022/06/09 12:58:02;;;;;;;;;;;;;;;;;;6234621;23;19930;-87
2022/06/09 13:00:28;;;;;;;;;;;;;;;;;;6206346;23;19930;-88
2022/06/09 13:02:54;;;;;;;;;;;;;;;;;;6185190;23;19946;-88
2022/06/09 13:05:20;;;;;;;;;;;;;;;;;;6211201;23;19915;-87
2022/06/09 13:07:46;;;;;;;;;;;;;;;;;;6232869;23;19919;-88
2022/06/09 13:10:12;;;;;;;;;;;;;;;;;;6236396;23;19919;-87
2022/06/09 13:12:50;;;;;;;;;;;;;;;;;;6235527;22;19923;-87
2022/06/09 13:15:16;;;;;;;;;;;;;;;;;;6267875;22;20266;-87
2022/06/09 13:17:42;;;;;;;;;;;;;;;;;;6237500;22;19998;-87
2022/06/09 13:20:08;;;;;;;;;;;;;;;;;;6238511;22;20339;-87
2022/06/09 13:22:34;;;;;;;;;;;;;;;;;;6264430;22;19930;-88
2022/06/09 13:25:00;;;;;;;;;;;;;;;;;;6216330;22;19915;-89
2022/06/09 13:27:26;;;;;;;;;;;;;;;;;;6238732;22;19930;-89
2022/06/09 13:29:52;;;;;;;;;;;;;;;;;;6214451;22;19922;-88
2022/06/09 13:32:19;;;;;;;;;;;;;;;;;;6237717;22;19923;-90
2022/06/09 13:34:45;;;;;;;;;;;;;;;;;;6236113;22;20280;-88
2022/06/09 13:37:11;;;;;;;;;;;;;;;;;;6237203;22;20288;-87
2022/06/09 13:39:36;;;;;;;;;;;;;;;;;;6236866;22;19931;-87
2022/06/09 13:42:02;;;;;;;;;;;;;;;;;;6213523;22;20431;-87
2022/06/09 13:44:28;;;;;;;;;;;;;;;;;;6212304;22;19915;-86
2022/06/09 13:46:54;;;;;;;;;;;;;;;;;;6215064;22;19950;-87
2022/06/09 13:49:20;;;;;;;;;;;;;;;;;;6238459;22;19915;-88
2022/06/09 13:51:46;;;;;;;;;;;;;;;;;;6211181;22;20259;-87
2022/06/09 13:54:12;;;;;;;;;;;;;;;;;;6213286;22;19930;-87
2022/06/09 13:56:38;;;;;;;;;;;;;;;;;;6210725;22;19919;-88
2022/06/09 13:59:04;;;;;;;;;;;;;;;;;;6213481;22;19919;-88
2022/06/09 14:01:31;;;;;;;;;;;;;;;;;;6237314;22;20252;-88
2022/06/09 14:03:59;;;;;;;;;;;;;;;;;;6266201;22;19930;-88
2022/06/09 14:06:25;;;;;;;;;;;;;;;;;;6236312;22;19925;-87
2022/06/09 14:08:51;;;;;;;;;;;;;;;;;;6242946;22;20295;-87
2022/06/09 14:11:17;;;;;;;;;;;;;;;;;;6239944;22;20381;-87
2022/06/09 14:13:43;;;;;;;;;;;;;;;;;;6236945;22;19946;-88
2022/06/09 14:16:10;;;;;;;;;;;;;;;;;;6263528;22;20476;-88
2022/06/09 14:18:35;;;;;;;;;;;;;;;;;;6237149;22;19919;-88
2022/06/09 14:21:01;;;;;;;;;;;;;;;;;;6240855;22;20330;-87
2022/06/09 14:23:27;;;;;;;;;;;;;;;;;;6211490;22;20004;-88
2022/06/09 14:25:53;;;;;;;;;;;;;;;;;;6239532;22;19938;-88
2022/06/09 14:28:19;;;;;;;;;;;;;;;;;;6237378;22;20345;-88
2022/06/09 14:30:45;;;;;;;;;;;;;;;;;;6262692;22;19919;-87
2022/06/09 14:33:11;;;;;;;;;;;;;;;;;;6214273;22;19994;-88
2022/06/09 14:35:37;;;;;;;;;;;;;;;;;;6234176;22;20266;-87
2022/06/09 14:38:03;;;;;;;;;;;;;;;;;;6237789;22;19919;-88
2022/06/09 14:40:29;;;;;;;;;;;;;;;;;;6235488;22;19926;-82
2022/06/09 14:42:55;;;;;;;;;;;;;;;;;;6238397;22;19923;-82
2022/06/09 14:45:21;;;;;;;;;;;;;;;;;;6238574;22;19969;-82
2022/06/09 14:47:47;;;;;;;;;;;;;;;;;;6231365;22;20235;-82
2022/06/09 14:50:13;;;;;;;;;;;;;;;;;;6237983;22;19926;-83
2022/06/09 14:52:39;;;;;;;;;;;;;;;;;;6237236;22;19919;-82
2022/06/09 14:55:05;;;;;;;;;;;;;;;;;;6239740;22;20129;-83
2022/06/09 14:57:31;;;;;;;;;;;;;;;;;;6211527;22;19922;-82
2022/06/09 14:59:57;;;;;;;;;;;;;;;;;;6234604;22;19926;-82
2022/06/09 15:02:24;;;;;;;;;;;;;;;;;;6209910;22;19998;-82
2022/06/09 15:04:50;;;;;;;;;;;;;;;;;;6236019;22;19973;-82
2022/06/09 15:07:16;;;;;;;;;;;;;;;;;;6211498;22;19934;-82
2022/06/09 15:09:42;;;;;;;;;;;;;;;;;;6230750;22;19919;-82
2022/06/09 15:12:08;;;;;;;;;;;;;;;;;;6234660;22;20284;-82
2022/06/09 15:14:34;;;;;;;;;;;;;;;;;;6233103;22;19942;-82
2022/06/09 15:17:00;;;;;;;;;;;;;;;;;;6207466;22;20463;-82
2022/06/09 15:19:26;;;;;;;;;;;;;;;;;;6204669;22;19957;-82
2022/06/09 15:21:52;;;;;;;;;;;;;;;;;;6208536;22;20332;-82
2022/06/09 15:24:20;;;;;;;;;;;;;;;;;;6233342;22;19926;-82
2022/06/09 15:26:46;;;;;;;;;;;;;;;;;;6233082;22;19923;-82
2022/06/09 15:29:12;;;;;;;;;;;;;;;;;;6234751;22;19919;-82
2022/06/09 15:31:38;;;;;;;;;;;;;;;;;;6205933;22;19919;-82
2022/06/09 15:34:04;;;;;;;;;;;;;;;;;;6205030;22;20335;-82
2022/06/09 15:36:31;;;;;;;;;;;;;;;;;;6232570;22;20721;-82
2022/06/09 15:38:57;;;;;;;;;;;;;;;;;;6237268;22;19933;-82
2022/06/09 15:41:23;;;;;;;;;;;;;;;;;;6239181;22;19919;-82
2022/06/09 15:43:49;;;;;;;;;;;;;;;;;;6212391;22;19916;-82
2022/06/09 15:46:15;;;;;;;;;;;;;;;;;;6210652;22;19919;-82
2022/06/09 15:48:41;;;;;;;;;;;;;;;;;;6233943;22;19961;-83
2022/06/09 15:51:07;;;;;;;;;;;;;;;;;;6210987;22;19919;-82
2022/06/09 15:53:33;;;;;;;;;;;;;;;;;;6233121;22;19919;-84
2022/06/09 15:55:59;;;;;;;;;;;;;;;;;;6212139;22;19996;-82
2022/06/09 15:58:25;;;;;;;;;;;;;;;;;;6234194;22;19919;-82
2022/06/09 16:00:51;;;;;;;;;;;;;;;;;;6237703;22;19923;-82
2022/06/09 16:03:17;;;;;;;;;;;;;;;;;;6235686;22;20000;-82
2022/06/09 16:05:43;;;;;;;;;;;;;;;;;;6233380;22;19922;-82
2022/06/09 16:08:09;;;;;;;;;;;;;;;;;;6211500;22;19915;-82
2022/06/09 16:10:35;;;;;;;;;;;;;;;;;;6232638;22;19949;-82
2022/06/09 16:13:01;;;;;;;;;;;;;;;;;;6263786;22;19986;-82
2022/06/09 16:15:27;;;;;;;;;;;;;;;;;;6234319;22;19923;-81
2022/06/09 16:17:53;;;;;;;;;;;;;;;;;;6235718;22;19972;-83
2022/06/09 16:20:19;;;;;;;;;;;;;;;;;;6210242;22;19950;-81
2022/06/09 16:22:45;;;;;;;;;;;;;;;;;;6229941;22;19927;-82
2022/06/09 16:25:11;;;;;;;;;;;;;;;;;;6212978;22;20220;-82
2022/06/09 16:27:36;;;;;;;;;;;;;;;;;;6207754;22;19923;-82
2022/06/09 16:30:02;;;;;;;;;;;;;;;;;;6235808;22;19919;-82
2022/06/09 16:32:28;;;;;;;;;;;;;;;;;;6233780;22;19990;-82
2022/06/09 16:34:54;;;;;;;;;;;;;;;;;;6234833;22;19919;-83
2022/06/09 16:37:20;;;;;;;;;;;;;;;;;;6209613;22;19965;-82
2022/06/09 16:39:46;;;;;;;;;;;;;;;;;;6209451;22;19927;-82
2022/06/09 16:42:12;;;;;;;;;;;;;;;;;;6240174;22;19942;-82
2022/06/09 16:44:38;;;;;;;;;;;;;;;;;;6235774;22;19919;-82
2022/06/09 16:47:04;;;;;;;;;;;;;;;;;;6236644;22;20251;-82
2022/06/09 16:49:30;;;;;;;;;;;;;;;;;;6208129;22;20216;-82
2022/06/09 16:51:56;;;;;;;;;;;;;;;;;;6210983;22;19927;-82
2022/06/09 16:54:22;;;;;;;;;;;;;;;;;;6234369;22;20244;-82
2022/06/09 16:56:48;;;;;;;;;;;;;;;;;;6232143;22;19919;-82
2022/06/09 16:59:14;;;;;;;;;;;;;;;;;;6208797;22;19919;-82
2022/06/09 17:01:40;;;;;;;;;;;;;;;;;;6205507;22;19953;-82
2022/06/09 17:04:06;;;;;;;;;;;;;;;;;;6208796;22;20001;-82
2022/06/09 17:06:32;;;;;;;;;;;;;;;;;;6233319;22;19954;-82